IT-0019 weather

Campo di Volo Cugno
Aidone, Sicily, Italy

Public forecast

Using degrees Celsius for public forecast. Weather courtesy of forecast.io.

Closest aviation weather report (METAR) to Campo di Volo Cugno

Closest report is Sigonella Navy Air Base, 14.8 nm (27.3 km) E. Retrieved 2019/12/14 19:55 UTC (58 minutes ago):

LICZ 141955Z 32020KT 9999 FEW020 16/10 Q1011 RMK FEW VIS MIN 9999 WIND THR28 32026G36KT WIND THR10 /////KT A2987 BLU

Closest aviation forecast (TAF) to Campo di Volo Cugno

Closest forecast is Sigonella Navy Air Base, 14.8 nm (27.3 km) E. Retrieved 2019/12/14 18:27 UTC (2 hours ago):

TAF LICZ 141700Z 1418/1518 30020KT 9999 FEW030 SCT080 TEMPO 1418/1421 30020G35KT BECMG 1421/1423 27010KT